createdAt,value
2023-01-13T00:01:31.390Z,85.22
2023-01-13T00:04:01.306Z,85.21
2023-01-13T00:06:29.822Z,85.08
2023-01-13T00:08:58.294Z,85.28
2023-01-13T00:11:27.915Z,85.18
2023-01-13T00:13:56.384Z,85.30
2023-01-13T00:16:24.716Z,85.34
2023-01-13T00:18:52.841Z,85.26
2023-01-13T00:21:23.510Z,85.11
2023-01-13T00:23:54.090Z,85.21
2023-01-13T00:26:27.802Z,85.18
2023-01-13T00:28:58.774Z,85.35
2023-01-13T00:31:29.464Z,85.49
2023-01-13T00:33:58.796Z,85.58
2023-01-13T00:36:27.869Z,85.90
2023-01-13T00:38:56.395Z,86.07
2023-01-13T00:41:26.449Z,86.25
2023-01-13T00:43:54.908Z,86.49
2023-01-13T00:46:23.440Z,86.55
2023-01-13T00:48:52.304Z,86.70
2023-01-13T00:51:22.055Z,86.69
2023-01-13T00:53:51.995Z,86.76
2023-01-13T00:56:40.831Z,86.83
2023-01-13T00:59:14.236Z,86.75
2023-01-13T01:01:43.385Z,86.82
2023-01-13T01:04:12.300Z,87.07
2023-01-13T01:06:40.451Z,86.89
2023-01-13T01:09:12.306Z,86.66
2023-01-13T01:11:41.695Z,86.52
2023-01-13T01:14:12.253Z,86.62
2023-01-13T01:16:41.517Z,86.48
2023-01-13T01:19:10.657Z,86.60
2023-01-13T01:21:39.039Z,86.39
2023-01-13T01:24:07.837Z,86.42
2023-01-13T01:26:36.128Z,86.13
2023-01-13T01:29:04.805Z,85.94
2023-01-13T01:31:34.027Z,85.87
2023-01-13T01:34:02.810Z,85.81
2023-01-13T01:36:31.288Z,85.80
2023-01-13T01:39:00.222Z,85.94
2023-01-13T01:41:32.787Z,85.81
2023-01-13T01:44:38.818Z,85.88
2023-01-13T01:47:09.759Z,85.73
2023-01-13T01:49:39.214Z,85.73
2023-01-13T01:52:13.481Z,85.94
2023-01-13T01:54:54.968Z,85.99
2023-01-13T01:57:52.610Z,85.76
2023-01-13T02:00:21.933Z,85.95
2023-01-13T02:02:51.975Z,85.88
2023-01-13T02:05:21.027Z,85.78
2023-01-13T02:07:52.805Z,85.48
2023-01-13T02:10:24.203Z,85.52
2023-01-13T02:12:54.388Z,85.33
2023-01-13T02:16:03.071Z,85.08
2023-01-13T02:19:05.139Z,85.16
2023-01-13T02:21:57.998Z,85.07
2023-01-13T02:24:54.506Z,84.96
2023-01-13T02:27:46.755Z,85.12
2023-01-13T02:30:34.471Z,85.06
2023-01-13T02:33:28.748Z,84.97
2023-01-13T02:36:01.532Z,85.20
2023-01-13T02:38:45.260Z,85.24
2023-01-13T02:41:41.071Z,85.47
2023-01-13T02:44:12.522Z,85.56
2023-01-13T02:46:54.054Z,85.55
2023-01-13T02:49:46.920Z,85.70
2023-01-13T02:52:21.113Z,85.65
2023-01-13T02:54:55.364Z,85.61
2023-01-13T02:57:26.699Z,85.40
2023-01-13T02:59:56.002Z,85.52
2023-01-13T03:02:26.252Z,85.71
2023-01-13T03:04:59.672Z,86.03
2023-01-13T03:08:17.992Z,86.30
2023-01-13T03:11:16.669Z,86.54
2023-01-13T03:14:26.397Z,86.75
2023-01-13T03:17:03.679Z,86.88
2023-01-13T03:19:54.993Z,87.08
2023-01-13T03:22:41.261Z,87.21
2023-01-13T03:25:18.782Z,87.31
2023-01-13T03:27:55.548Z,87.53
2023-01-13T03:30:34.318Z,87.24
2023-01-13T03:33:20.152Z,87.34
2023-01-13T03:35:54.683Z,87.07
2023-01-13T03:38:30.135Z,86.99
2023-01-13T03:41:05.670Z,86.62
2023-01-13T03:44:03.940Z,86.46
2023-01-13T03:46:55.446Z,86.47
2023-01-13T03:49:29.973Z,86.37
2023-01-13T03:52:03.682Z,86.15
2023-01-13T03:54:34.209Z,86.01
2023-01-13T03:57:09.276Z,86.08
2023-01-13T03:59:43.166Z,85.88
2023-01-13T04:02:30.069Z,85.89
2023-01-13T04:05:03.158Z,85.99
2023-01-13T04:07:47.309Z,86.16
2023-01-13T04:10:19.440Z,86.31
2023-01-13T04:13:01.995Z,86.31
2023-01-13T04:15:34.329Z,86.46
2023-01-13T04:18:14.713Z,86.37
2023-01-13T04:20:46.083Z,86.40
2023-01-13T04:23:14.449Z,86.49
2023-01-13T04:25:44.323Z,86.44
2023-01-13T04:28:13.524Z,86.51
2023-01-13T04:30:43.184Z,86.41
2023-01-13T04:33:13.635Z,86.44
2023-01-13T04:35:42.378Z,86.47
2023-01-13T04:38:13.371Z,86.47
2023-01-13T04:40:42.523Z,86.53
2023-01-13T04:43:11.562Z,86.42
2023-01-13T04:45:40.042Z,86.48
2023-01-13T04:48:08.334Z,86.44
2023-01-13T04:50:36.891Z,86.36
2023-01-13T04:53:06.035Z,86.33
2023-01-13T04:55:35.453Z,86.45
2023-01-13T04:58:09.137Z,86.16
2023-01-13T05:00:37.615Z,86.45
2023-01-13T05:03:06.103Z,86.32
2023-01-13T05:05:34.702Z,86.44
2023-01-13T05:08:03.375Z,86.36
2023-01-13T05:10:31.897Z,86.68
2023-01-13T05:13:18.874Z,86.52
2023-01-13T05:16:06.878Z,86.53
2023-01-13T05:18:35.604Z,86.58
2023-01-13T05:21:03.783Z,86.85
2023-01-13T05:23:50.683Z,86.74
2023-01-13T05:26:18.765Z,86.95
2023-01-13T05:28:47.149Z,87.32
2023-01-13T05:31:15.681Z,87.17
2023-01-13T05:33:44.123Z,87.19
2023-01-13T05:36:12.199Z,87.12
2023-01-13T05:38:40.483Z,87.40
2023-01-13T05:41:28.722Z,87.47
2023-01-13T05:43:57.108Z,87.44
2023-01-13T05:46:25.971Z,87.31
2023-01-13T05:48:54.856Z,87.42
2023-01-13T05:51:26.474Z,87.39
2023-01-13T05:53:54.751Z,87.68
2023-01-13T05:56:22.890Z,87.51
2023-01-13T05:58:51.093Z,87.57
2023-01-13T06:01:19.489Z,87.28
2023-01-13T06:03:48.176Z,87.25
2023-01-13T06:06:16.660Z,87.49
2023-01-13T06:08:45.271Z,87.49
2023-01-13T06:11:13.633Z,87.87
2023-01-13T06:13:41.913Z,88.07
2023-01-13T06:16:10.853Z,87.91
2023-01-13T06:18:39.295Z,87.85
2023-01-13T06:21:07.780Z,88.03
2023-01-13T06:23:38.819Z,87.98
2023-01-13T06:26:19.598Z,88.08
2023-01-13T06:28:50.225Z,87.86
2023-01-13T06:31:19.384Z,88.01
2023-01-13T06:33:51.812Z,88.32
2023-01-13T06:36:29.422Z,87.82
2023-01-13T06:38:59.858Z,87.78
2023-01-13T06:41:50.530Z,87.88
2023-01-13T06:44:20.680Z,87.78
2023-01-13T06:46:49.081Z,87.70
2023-01-13T06:49:17.501Z,87.83
2023-01-13T06:51:46.726Z,87.74
2023-01-13T06:54:14.809Z,87.60
2023-01-13T06:56:42.982Z,87.49
2023-01-13T06:59:11.299Z,87.51
2023-01-13T07:01:39.545Z,87.51
2023-01-13T07:04:08.134Z,87.55
2023-01-13T07:06:36.314Z,87.45
2023-01-13T07:09:06.782Z,87.54
2023-01-13T07:11:35.347Z,87.37
2023-01-13T07:14:22.152Z,87.08
2023-01-13T07:16:52.520Z,86.64
2023-01-13T07:19:24.051Z,86.49
2023-01-13T07:21:52.940Z,86.29
2023-01-13T07:24:22.583Z,86.38
2023-01-13T07:26:52.516Z,86.22
2023-01-13T07:29:20.849Z,86.12
2023-01-13T07:31:50.200Z,85.99
2023-01-13T07:34:18.742Z,85.91
2023-01-13T07:36:47.331Z,85.81
2023-01-13T07:39:16.020Z,85.69
2023-01-13T07:42:03.448Z,85.50
2023-01-13T07:44:32.031Z,85.50
2023-01-13T07:47:00.257Z,85.19
2023-01-13T07:49:28.686Z,85.10
2023-01-13T07:51:56.874Z,85.25
2023-01-13T07:54:39.817Z,85.31
2023-01-13T07:57:09.807Z,85.44
2023-01-13T07:59:38.645Z,85.45
2023-01-13T08:02:07.174Z,85.26
2023-01-13T08:04:35.612Z,84.89
2023-01-13T08:07:05.088Z,84.98
2023-01-13T08:09:33.979Z,84.93
2023-01-13T08:12:21.501Z,84.82
2023-01-13T08:14:51.111Z,84.40
2023-01-13T08:17:20.599Z,83.98
2023-01-13T08:19:49.105Z,84.32
2023-01-13T08:22:17.498Z,84.61
2023-01-13T08:24:45.875Z,84.13
2023-01-13T08:27:14.166Z,82.61
2023-01-13T08:29:42.851Z,81.76
2023-01-13T08:32:11.447Z,82.00
2023-01-13T08:34:39.626Z,80.85
2023-01-13T08:37:07.800Z,79.91
2023-01-13T08:39:36.399Z,80.43
2023-01-13T08:42:05.494Z,78.56
2023-01-13T08:44:33.771Z,77.08
2023-01-13T08:47:02.777Z,76.02
2023-01-13T08:49:31.367Z,75.55
2023-01-13T08:51:59.660Z,74.79
2023-01-13T08:54:28.045Z,71.69
2023-01-13T08:56:56.941Z,70.80
2023-01-13T08:59:25.415Z,69.64
2023-01-13T09:01:54.049Z,69.67
2023-01-13T09:04:25.818Z,69.35
2023-01-13T09:06:55.553Z,69.42
2023-01-13T09:09:24.273Z,69.71
2023-01-13T09:12:11.387Z,70.14
2023-01-13T09:14:40.380Z,70.90
2023-01-13T09:17:08.760Z,71.84
2023-01-13T09:19:37.769Z,71.12
2023-01-13T09:22:06.048Z,69.86
2023-01-13T09:24:34.228Z,69.12
2023-01-13T09:27:02.504Z,68.10
2023-01-13T09:29:31.212Z,67.32
2023-01-13T09:31:59.902Z,67.05
2023-01-13T09:34:46.503Z,65.48
2023-01-13T09:37:14.995Z,63.95
2023-01-13T09:39:43.668Z,63.58
2023-01-13T09:42:49.923Z,63.84
2023-01-13T09:45:43.576Z,61.09
2023-01-13T09:48:14.931Z,61.98
2023-01-13T09:50:51.708Z,61.97
2023-01-13T09:53:25.756Z,59.62
2023-01-13T09:55:54.950Z,58.46
2023-01-13T09:58:25.054Z,60.06
2023-01-13T10:00:53.683Z,59.41
2023-01-13T10:03:33.891Z,55.93
2023-01-13T10:06:16.743Z,55.56
2023-01-13T10:08:47.557Z,55.82
2023-01-13T10:11:34.450Z,54.53
2023-01-13T10:14:13.888Z,54.35
2023-01-13T10:17:05.699Z,54.58
2023-01-13T10:19:44.544Z,53.41
2023-01-13T10:22:24.200Z,53.26
2023-01-13T10:25:04.836Z,51.89
2023-01-13T10:27:39.360Z,51.16
2023-01-13T10:30:32.915Z,51.46
2023-01-13T10:33:09.698Z,50.61
2023-01-13T10:36:06.423Z,51.67
2023-01-13T10:38:53.136Z,50.49
2023-01-13T10:41:26.215Z,50.91
2023-01-13T10:44:01.177Z,48.32
2023-01-13T10:46:31.936Z,49.35
2023-01-13T10:49:24.223Z,48.16
2023-01-13T10:51:52.745Z,49.37
2023-01-13T10:54:23.655Z,49.83
2023-01-13T10:57:14.342Z,49.26
2023-01-13T10:59:42.836Z,48.53
2023-01-13T11:02:25.216Z,47.39
2023-01-13T11:04:54.625Z,47.83
2023-01-13T11:07:29.173Z,48.49
2023-01-13T11:10:22.630Z,49.34
2023-01-13T11:12:58.892Z,51.04
2023-01-13T11:15:39.653Z,52.75
2023-01-13T11:18:25.127Z,54.33
2023-01-13T11:20:55.851Z,55.51
2023-01-13T11:23:35.304Z,56.36
2023-01-13T11:26:39.249Z,57.27
2023-01-13T11:29:21.100Z,58.69
2023-01-13T11:31:54.438Z,59.83
2023-01-13T11:34:32.757Z,60.58
2023-01-13T11:37:05.259Z,61.74
2023-01-13T11:39:49.930Z,61.99
2023-01-13T11:42:54.854Z,62.46
2023-01-13T11:45:53.667Z,63.49
2023-01-13T11:48:29.985Z,63.78
2023-01-13T11:51:18.128Z,64.32
2023-01-13T11:54:00.947Z,64.58
2023-01-13T11:56:45.404Z,64.71
2023-01-13T11:59:28.613Z,65.03
2023-01-13T12:02:35.579Z,64.86
2023-01-13T12:05:32.107Z,65.99
2023-01-13T12:08:18.602Z,65.66
2023-01-13T12:10:58.871Z,65.86
2023-01-13T12:13:36.168Z,66.76
2023-01-13T12:16:25.684Z,67.86
2023-01-13T12:19:10.674Z,68.83
2023-01-13T12:21:50.726Z,69.20
2023-01-13T12:24:51.557Z,69.42
2023-01-13T12:27:27.427Z,69.38
2023-01-13T12:29:59.989Z,69.50
2023-01-13T12:32:38.604Z,69.06
2023-01-13T12:35:15.684Z,69.25
2023-01-13T12:37:57.587Z,69.09
2023-01-13T12:40:43.977Z,69.09
2023-01-13T12:43:34.158Z,69.12
2023-01-13T12:46:23.718Z,68.75
2023-01-13T12:48:55.184Z,68.37
2023-01-13T12:51:28.913Z,68.79
2023-01-13T12:53:57.180Z,69.03
2023-01-13T12:56:43.920Z,69.11
2023-01-13T12:59:19.255Z,69.07
2023-01-13T13:02:12.726Z,69.56
2023-01-13T13:04:41.508Z,69.97
2023-01-13T13:07:35.639Z,70.26
2023-01-13T13:10:16.521Z,70.66
2023-01-13T13:13:03.512Z,70.72
2023-01-13T13:15:37.218Z,71.17
2023-01-13T13:18:06.429Z,71.96
2023-01-13T13:20:56.598Z,72.32
2023-01-13T13:23:35.637Z,72.87
2023-01-13T13:26:36.045Z,73.30
2023-01-13T13:29:30.929Z,73.21
2023-01-13T13:32:15.894Z,73.33
2023-01-13T13:34:59.344Z,73.98
2023-01-13T13:37:27.604Z,74.11
2023-01-13T13:40:15.331Z,74.22
2023-01-13T13:43:04.080Z,74.50
2023-01-13T13:45:52.100Z,74.21
2023-01-13T13:48:21.624Z,74.74
2023-01-13T13:51:01.979Z,75.02
2023-01-13T13:53:36.613Z,75.31
2023-01-13T13:56:15.838Z,75.56
2023-01-13T13:58:44.292Z,75.69
2023-01-13T14:01:37.071Z,75.52
2023-01-13T14:04:13.431Z,75.22
2023-01-13T14:06:54.278Z,75.38
2023-01-13T14:09:25.005Z,75.79
2023-01-13T14:11:59.830Z,75.69
2023-01-13T14:14:28.707Z,76.25
2023-01-13T14:16:57.513Z,76.32
2023-01-13T14:19:33.684Z,76.33
2023-01-13T14:22:04.622Z,76.32
2023-01-13T14:24:33.121Z,76.45
2023-01-13T14:27:15.812Z,76.60
2023-01-13T14:29:45.374Z,76.58
2023-01-13T14:32:19.744Z,76.60
2023-01-13T14:34:48.146Z,76.72
2023-01-13T14:37:39.017Z,76.79
2023-01-13T14:40:33.688Z,76.53
2023-01-13T14:43:15.478Z,77.02
2023-01-13T14:46:04.156Z,76.95
2023-01-13T14:48:36.038Z,77.28
2023-01-13T14:51:09.960Z,77.54
2023-01-13T14:53:46.916Z,77.36
2023-01-13T14:56:36.572Z,77.66
2023-01-13T14:59:43.885Z,77.96
2023-01-13T15:02:39.408Z,77.87
2023-01-13T15:05:17.339Z,77.79
2023-01-13T15:07:53.485Z,78.01
2023-01-13T15:10:28.932Z,78.15
2023-01-13T15:12:59.959Z,78.52
2023-01-13T15:15:33.990Z,78.86
2023-01-13T15:18:12.066Z,79.09
2023-01-13T15:20:41.810Z,79.01
2023-01-13T15:23:11.322Z,79.35
2023-01-13T15:25:43.089Z,79.42
2023-01-13T15:28:24.875Z,79.53
2023-01-13T15:30:55.757Z,79.39
2023-01-13T15:33:24.199Z,79.31
2023-01-13T15:35:54.041Z,79.41
2023-01-13T15:38:24.860Z,79.08
2023-01-13T15:40:53.487Z,79.44
2023-01-13T15:43:43.151Z,79.45
2023-01-13T15:46:37.876Z,79.47
2023-01-13T15:49:41.490Z,79.37
2023-01-13T15:52:28.196Z,79.25
2023-01-13T15:54:56.981Z,79.35
2023-01-13T15:57:28.765Z,79.11
2023-01-13T16:00:01.467Z,79.13
2023-01-13T16:02:34.841Z,79.20
2023-01-13T16:05:03.218Z,78.96
2023-01-13T16:07:32.353Z,78.42
2023-01-13T16:10:02.061Z,78.35
2023-01-13T16:12:30.937Z,78.26
2023-01-13T16:14:59.728Z,78.03
2023-01-13T16:17:30.259Z,78.21
2023-01-13T16:19:58.746Z,77.88
2023-01-13T16:22:27.039Z,78.03
2023-01-13T16:24:55.507Z,77.60
2023-01-13T16:27:25.358Z,77.61
2023-01-13T16:29:53.842Z,77.70
2023-01-13T16:32:22.349Z,77.83
2023-01-13T16:34:50.727Z,78.04
2023-01-13T16:37:25.055Z,78.24
2023-01-13T16:39:55.020Z,78.51
2023-01-13T16:42:23.776Z,78.78
2023-01-13T16:44:53.094Z,78.74
2023-01-13T16:47:23.012Z,78.97
2023-01-13T16:49:51.797Z,78.87
2023-01-13T16:52:20.182Z,78.93
2023-01-13T16:54:48.930Z,79.39
2023-01-13T16:57:17.885Z,79.28
2023-01-13T16:59:46.471Z,79.28
2023-01-13T17:02:19.277Z,79.47
2023-01-13T17:04:49.381Z,79.47
2023-01-13T17:07:18.444Z,79.30
2023-01-13T17:09:47.074Z,79.19
2023-01-13T17:12:15.459Z,79.22
2023-01-13T17:14:43.945Z,79.54
2023-01-13T17:17:24.612Z,79.51
2023-01-13T17:19:53.724Z,79.69
2023-01-13T17:22:22.864Z,79.86
2023-01-13T17:24:51.219Z,79.50
2023-01-13T17:27:21.345Z,79.49
2023-01-13T17:29:50.320Z,79.56
2023-01-13T17:32:20.552Z,79.50
2023-01-13T17:34:49.749Z,79.79
2023-01-13T17:37:18.235Z,79.35
2023-01-13T17:39:48.700Z,79.58
2023-01-13T17:42:17.364Z,79.60
2023-01-13T17:44:48.216Z,79.28
2023-01-13T17:47:16.506Z,79.30
2023-01-13T17:49:44.658Z,79.06
2023-01-13T17:52:13.350Z,78.94
2023-01-13T17:54:43.377Z,78.98
2023-01-13T17:57:11.653Z,78.89
2023-01-13T17:59:41.998Z,78.74
2023-01-13T18:02:12.561Z,78.87
2023-01-13T18:04:42.262Z,78.97
2023-01-13T18:07:10.406Z,78.92
2023-01-13T18:09:38.891Z,79.10
2023-01-13T18:12:07.170Z,79.37
2023-01-13T18:14:35.481Z,79.44
2023-01-13T18:17:03.878Z,79.74
2023-01-13T18:19:51.568Z,79.80
2023-01-13T18:22:38.690Z,80.02
2023-01-13T18:25:30.810Z,80.04
2023-01-13T18:28:05.231Z,80.33
2023-01-13T18:30:33.665Z,80.30
2023-01-13T18:33:01.989Z,80.55
2023-01-13T18:35:30.378Z,80.10
2023-01-13T18:37:58.761Z,80.36
2023-01-13T18:40:26.948Z,80.46
2023-01-13T18:42:55.428Z,80.09
2023-01-13T18:45:27.421Z,80.04
2023-01-13T18:47:58.545Z,79.99
2023-01-13T18:50:28.281Z,80.39
2023-01-13T18:52:56.940Z,80.51
2023-01-13T18:55:27.267Z,80.69
2023-01-13T18:57:56.729Z,80.74
2023-01-13T19:00:27.341Z,80.46
2023-01-13T19:05:36.336Z,80.77
2023-01-13T19:08:05.591Z,80.84
2023-01-13T19:10:33.992Z,80.84
2023-01-13T19:13:02.335Z,80.94
2023-01-13T19:15:30.763Z,81.07
2023-01-13T19:18:00.385Z,80.99
2023-01-13T19:20:29.135Z,80.74
2023-01-13T19:22:57.418Z,80.81
2023-01-13T19:25:25.601Z,80.80
2023-01-13T19:27:53.973Z,80.63
2023-01-13T19:30:22.361Z,80.49
2023-01-13T19:32:50.724Z,80.46
2023-01-13T19:35:20.186Z,80.32
2023-01-13T19:37:48.437Z,80.74
2023-01-13T19:40:16.921Z,80.67
2023-01-13T19:43:04.763Z,80.91
2023-01-13T19:45:35.613Z,80.98
2023-01-13T19:48:05.934Z,80.69
2023-01-13T19:50:39.012Z,81.01
2023-01-13T19:53:14.739Z,81.15
2023-01-13T19:55:51.238Z,80.94
2023-01-13T19:58:20.071Z,81.20
2023-01-13T20:00:48.720Z,81.16
2023-01-13T20:03:20.665Z,81.44
2023-01-13T20:05:48.968Z,81.62
2023-01-13T20:08:19.808Z,81.77
2023-01-13T20:10:49.530Z,82.00
2023-01-13T20:13:17.909Z,81.96
2023-01-13T20:15:46.321Z,82.03
2023-01-13T20:18:14.675Z,82.12
2023-01-13T20:20:43.162Z,82.36
2023-01-13T20:23:11.657Z,82.39
2023-01-13T20:25:42.753Z,82.27
2023-01-13T20:28:11.602Z,82.30
2023-01-13T20:30:40.592Z,82.42
2023-01-13T20:33:09.084Z,82.77
2023-01-13T20:35:37.364Z,82.78
2023-01-13T20:38:05.746Z,82.90
2023-01-13T20:40:34.131Z,82.87
2023-01-13T20:43:02.820Z,82.79
2023-01-13T20:45:31.305Z,82.91
2023-01-13T20:47:59.493Z,82.82
2023-01-13T20:50:27.878Z,82.80
2023-01-13T20:52:56.061Z,82.41
2023-01-13T20:55:24.330Z,82.49
2023-01-13T20:57:53.023Z,82.53
2023-01-13T21:00:22.117Z,82.70
2023-01-13T21:02:50.305Z,82.69
2023-01-13T21:05:18.896Z,82.67
2023-01-13T21:07:47.181Z,82.75
2023-01-13T21:10:16.005Z,82.71
2023-01-13T21:13:02.773Z,82.49
2023-01-13T21:15:31.674Z,82.31
2023-01-13T21:18:18.371Z,82.14
2023-01-13T21:20:46.659Z,82.33
2023-01-13T21:23:15.552Z,82.35
2023-01-13T21:25:43.831Z,82.42
2023-01-13T21:28:13.957Z,82.83
2023-01-13T21:30:43.879Z,82.38
2023-01-13T21:33:14.163Z,82.13
2023-01-13T21:35:42.410Z,81.87
2023-01-13T21:38:11.952Z,81.97
2023-01-13T21:40:40.179Z,82.11
2023-01-13T21:43:31.805Z,81.87
2023-01-13T21:46:19.008Z,81.78
2023-01-13T21:48:47.084Z,82.01
2023-01-13T21:51:15.474Z,81.96
2023-01-13T21:53:43.855Z,81.81
2023-01-13T21:56:12.138Z,81.82
2023-01-13T21:58:41.232Z,81.39
2023-01-13T22:01:10.159Z,81.39
2023-01-13T22:04:00.207Z,81.39
2023-01-13T22:06:29.028Z,81.12
2023-01-13T22:09:01.076Z,81.16
2023-01-13T22:11:29.250Z,81.21
2023-01-13T22:14:07.563Z,81.08
2023-01-13T22:16:49.191Z,81.49
2023-01-13T22:19:18.768Z,81.80
2023-01-13T22:21:47.162Z,82.06
2023-01-13T22:24:16.143Z,82.01
2023-01-13T22:26:44.339Z,82.20
2023-01-13T22:29:12.608Z,82.58
2023-01-13T22:31:41.128Z,82.86
2023-01-13T22:34:12.415Z,83.16
2023-01-13T22:36:40.520Z,83.16
2023-01-13T22:39:09.169Z,83.40
2023-01-13T22:41:37.514Z,83.47
2023-01-13T22:44:06.186Z,83.38
2023-01-13T22:46:34.979Z,83.71
2023-01-13T22:49:03.181Z,83.61
2023-01-13T22:51:31.645Z,83.63
2023-01-13T22:53:59.723Z,83.58
2023-01-13T22:56:27.904Z,83.68
2023-01-13T22:58:58.743Z,83.57
2023-01-13T23:01:29.397Z,83.71
2023-01-13T23:03:59.000Z,83.64
2023-01-13T23:06:29.527Z,83.73
2023-01-13T23:08:58.220Z,83.46
2023-01-13T23:11:29.715Z,83.53
2023-01-13T23:14:00.520Z,83.47
2023-01-13T23:16:30.294Z,83.19
2023-01-13T23:18:58.628Z,83.41
2023-01-13T23:21:30.068Z,83.44
2023-01-13T23:23:58.954Z,83.32
2023-01-13T23:26:28.802Z,83.50
2023-01-13T23:29:15.183Z,83.25
2023-01-13T23:31:43.560Z,83.54
2023-01-13T23:34:11.961Z,83.59
2023-01-13T23:36:42.071Z,83.24
2023-01-13T23:39:10.351Z,83.33
2023-01-13T23:41:38.637Z,83.18
2023-01-13T23:44:07.217Z,83.35
2023-01-13T23:46:35.823Z,83.34
2023-01-13T23:49:04.884Z,83.70
2023-01-13T23:51:33.347Z,83.73
2023-01-13T23:54:01.474Z,83.65
2023-01-13T23:56:31.587Z,83.89
2023-01-13T23:59:00.031Z,84.26
